KJER

Jerome County Airport

Jerome, Idaho, USA
METAR KJER 180653Z AUTO 26009KT 10SM -RA OVC055 08/M01 A2963 RMK AO2 SLP026 P0000 T00781006 401061017 TSNO
Observed Flight Rules
Feb-18 @ 06:53 UTC (20 minutes ago) Visual Flight Rules
Wind Visibility Clouds Conditions
260° at 9 knots 10 miles
  • Overcast at 5,500' AGL
  • Light Rain
Temperatures Readings Precipitation
Current 8°C / 46°F
Dewpoint -1°C / 30°F
Humidity 53%
Altimeter 29.63" Hg
Pressure 1002.6 hPa
Elevation 1222
Current Rain 0.005
METAR KJER 180653Z AUTO 26009KT 10SM -RA OVC055 08/M01 A2963 RMK AO2 SLP026 P0000 T00781006 401061017 TSNO
Observed Flight Rules
Feb-18 @ 06:53 UTC
(20 minutes ago)
VFR
Wind Visibility
260° at 9 knots 10 miles
Clouds
  • Overcast at 5,500' AGL
Conditions
  • Light Rain
Temperature Dewpoint
8°C / 46°F -1°C / 30°F
Humidity Altimeter Pressure
53% 29.63" Hg 1002.6 hPa
Current Rain
0.005